sensor_id;sensor_type;location;lat;lon;timestamp;P1;durP1;ratioP1;P2;durP2;ratioP2
3443;SDS011;1736;52.068;6.968;2023-02-03T00:01:05;12.87;;;8.10;;
3443;SDS011;1736;52.068;6.968;2023-02-03T00:03:32;21.60;;;9.37;;
3443;SDS011;1736;52.068;6.968;2023-02-03T00:05:58;14.27;;;8.43;;
3443;SDS011;1736;52.068;6.968;2023-02-03T00:08:25;18.43;;;8.60;;
3443;SDS011;1736;52.068;6.968;2023-02-03T00:10:52;16.97;;;8.20;;
3443;SDS011;1736;52.068;6.968;2023-02-03T00:13:19;21.23;;;7.60;;
3443;SDS011;1736;52.068;6.968;2023-02-03T00:15:47;18.93;;;7.90;;
3443;SDS011;1736;52.068;6.968;2023-02-03T00:18:14;17.87;;;7.13;;
3443;SDS011;1736;52.068;6.968;2023-02-03T00:20:40;17.63;;;8.40;;
3443;SDS011;1736;52.068;6.968;2023-02-03T00:23:07;19.20;;;8.20;;
3443;SDS011;1736;52.068;6.968;2023-02-03T00:25:35;18.07;;;7.83;;
3443;SDS011;1736;52.068;6.968;2023-02-03T00:28:03;13.30;;;8.00;;
3443;SDS011;1736;52.068;6.968;2023-02-03T00:30:30;15.07;;;7.20;;
3443;SDS011;1736;52.068;6.968;2023-02-03T00:33:01;17.37;;;7.83;;
3443;SDS011;1736;52.068;6.968;2023-02-03T00:35:28;12.60;;;6.80;;
3443;SDS011;1736;52.068;6.968;2023-02-03T00:37:55;15.40;;;7.67;;
3443;SDS011;1736;52.068;6.968;2023-02-03T00:40:23;14.53;;;7.10;;
3443;SDS011;1736;52.068;6.968;2023-02-03T00:42:50;14.40;;;7.73;;
3443;SDS011;1736;52.068;6.968;2023-02-03T00:45:18;15.53;;;8.20;;
3443;SDS011;1736;52.068;6.968;2023-02-03T00:47:45;13.10;;;7.00;;
3443;SDS011;1736;52.068;6.968;2023-02-03T00:50:13;12.63;;;7.43;;
3443;SDS011;1736;52.068;6.968;2023-02-03T00:52:39;15.17;;;7.37;;
3443;SDS011;1736;52.068;6.968;2023-02-03T00:55:06;12.87;;;6.80;;
3443;SDS011;1736;52.068;6.968;2023-02-03T00:57:33;19.33;;;7.43;;
3443;SDS011;1736;52.068;6.968;2023-02-03T01:00:00;13.93;;;6.00;;
3443;SDS011;1736;52.068;6.968;2023-02-03T01:02:26;18.33;;;6.30;;
3443;SDS011;1736;52.068;6.968;2023-02-03T01:04:53;15.37;;;5.73;;
3443;SDS011;1736;52.068;6.968;2023-02-03T01:07:21;14.40;;;6.30;;
3443;SDS011;1736;52.068;6.968;2023-02-03T01:09:47;18.10;;;6.60;;
3443;SDS011;1736;52.068;6.968;2023-02-03T01:12:14;12.57;;;6.57;;
3443;SDS011;1736;52.068;6.968;2023-02-03T01:14:40;16.93;;;5.70;;
3443;SDS011;1736;52.068;6.968;2023-02-03T01:17:07;16.80;;;6.33;;
3443;SDS011;1736;52.068;6.968;2023-02-03T01:19:33;15.07;;;6.37;;
3443;SDS011;1736;52.068;6.968;2023-02-03T01:22:00;13.00;;;6.57;;
3443;SDS011;1736;52.068;6.968;2023-02-03T01:24:29;13.13;;;6.23;;
3443;SDS011;1736;52.068;6.968;2023-02-03T01:26:55;13.60;;;6.20;;
3443;SDS011;1736;52.068;6.968;2023-02-03T01:29:22;14.33;;;5.90;;
3443;SDS011;1736;52.068;6.968;2023-02-03T01:31:49;14.93;;;6.37;;
3443;SDS011;1736;52.068;6.968;2023-02-03T01:34:15;12.40;;;5.80;;
3443;SDS011;1736;52.068;6.968;2023-02-03T01:36:42;12.33;;;5.80;;
3443;SDS011;1736;52.068;6.968;2023-02-03T01:39:10;18.10;;;6.67;;
3443;SDS011;1736;52.068;6.968;2023-02-03T01:41:39;11.33;;;6.20;;
3443;SDS011;1736;52.068;6.968;2023-02-03T01:47:03;14.20;;;6.50;;
3443;SDS011;1736;52.068;6.968;2023-02-03T01:49:36;10.43;;;5.40;;
3443;SDS011;1736;52.068;6.968;2023-02-03T01:52:06;21.63;;;6.57;;
3443;SDS011;1736;52.068;6.968;2023-02-03T01:54:32;17.70;;;6.93;;
3443;SDS011;1736;52.068;6.968;2023-02-03T01:57:05;17.37;;;6.50;;
3443;SDS011;1736;52.068;6.968;2023-02-03T01:59:36;23.50;;;7.20;;
3443;SDS011;1736;52.068;6.968;2023-02-03T02:02:03;16.50;;;7.53;;
3443;SDS011;1736;52.068;6.968;2023-02-03T02:04:33;13.60;;;5.93;;
3443;SDS011;1736;52.068;6.968;2023-02-03T02:07:05;25.23;;;7.70;;
3443;SDS011;1736;52.068;6.968;2023-02-03T02:09:32;13.43;;;6.33;;
3443;SDS011;1736;52.068;6.968;2023-02-03T02:11:59;11.13;;;6.60;;
3443;SDS011;1736;52.068;6.968;2023-02-03T02:14:27;15.73;;;6.80;;
3443;SDS011;1736;52.068;6.968;2023-02-03T02:16:56;8.00;;;5.97;;
3443;SDS011;1736;52.068;6.968;2023-02-03T02:22:22;17.27;;;6.27;;
3443;SDS011;1736;52.068;6.968;2023-02-03T02:25:10;17.53;;;6.70;;
3443;SDS011;1736;52.068;6.968;2023-02-03T02:27:56;12.50;;;5.87;;
3443;SDS011;1736;52.068;6.968;2023-02-03T02:30:54;16.60;;;6.40;;
3443;SDS011;1736;52.068;6.968;2023-02-03T02:33:35;14.90;;;5.80;;
3443;SDS011;1736;52.068;6.968;2023-02-03T02:36:12;11.00;;;5.93;;
3443;SDS011;1736;52.068;6.968;2023-02-03T02:38:53;12.53;;;5.97;;
3443;SDS011;1736;52.068;6.968;2023-02-03T02:41:25;15.63;;;5.67;;
3443;SDS011;1736;52.068;6.968;2023-02-03T02:43:57;10.30;;;4.60;;
3443;SDS011;1736;52.068;6.968;2023-02-03T02:46:29;19.73;;;6.47;;
3443;SDS011;1736;52.068;6.968;2023-02-03T02:49:01;17.97;;;5.50;;
3443;SDS011;1736;52.068;6.968;2023-02-03T02:51:32;23.13;;;5.43;;
3443;SDS011;1736;52.068;6.968;2023-02-03T02:54:01;10.40;;;4.80;;
3443;SDS011;1736;52.068;6.968;2023-02-03T02:56:31;17.33;;;5.03;;
3443;SDS011;1736;52.068;6.968;2023-02-03T02:59:00;12.33;;;4.77;;
3443;SDS011;1736;52.068;6.968;2023-02-03T03:01:29;10.47;;;4.60;;
3443;SDS011;1736;52.068;6.968;2023-02-03T03:03:56;11.27;;;4.23;;
3443;SDS011;1736;52.068;6.968;2023-02-03T03:06:27;14.03;;;4.90;;
3443;SDS011;1736;52.068;6.968;2023-02-03T03:08:59;14.33;;;4.40;;
3443;SDS011;1736;52.068;6.968;2023-02-03T03:11:30;13.43;;;4.67;;
3443;SDS011;1736;52.068;6.968;2023-02-03T03:13:58;9.47;;;4.17;;
3443;SDS011;1736;52.068;6.968;2023-02-03T03:16:28;12.40;;;4.43;;
3443;SDS011;1736;52.068;6.968;2023-02-03T03:18:58;9.63;;;3.97;;
3443;SDS011;1736;52.068;6.968;2023-02-03T03:21:29;5.80;;;3.43;;
3443;SDS011;1736;52.068;6.968;2023-02-03T03:24:00;11.50;;;4.10;;
3443;SDS011;1736;52.068;6.968;2023-02-03T03:26:33;17.37;;;5.13;;
3443;SDS011;1736;52.068;6.968;2023-02-03T03:29:05;7.83;;;3.63;;
3443;SDS011;1736;52.068;6.968;2023-02-03T03:31:37;15.33;;;5.13;;
3443;SDS011;1736;52.068;6.968;2023-02-03T03:34:05;9.60;;;3.83;;
3443;SDS011;1736;52.068;6.968;2023-02-03T03:36:36;9.50;;;4.23;;
3443;SDS011;1736;52.068;6.968;2023-02-03T03:39:08;9.53;;;3.87;;
3443;SDS011;1736;52.068;6.968;2023-02-03T03:41:43;8.27;;;3.87;;
3443;SDS011;1736;52.068;6.968;2023-02-03T03:44:20;9.23;;;4.10;;
3443;SDS011;1736;52.068;6.968;2023-02-03T03:46:54;8.93;;;5.40;;
3443;SDS011;1736;52.068;6.968;2023-02-03T03:49:29;7.90;;;3.50;;
3443;SDS011;1736;52.068;6.968;2023-02-03T03:52:00;7.40;;;3.20;;
3443;SDS011;1736;52.068;6.968;2023-02-03T03:54:30;11.90;;;4.13;;
3443;SDS011;1736;52.068;6.968;2023-02-03T03:56:59;6.77;;;3.13;;
3443;SDS011;1736;52.068;6.968;2023-02-03T03:59:31;8.73;;;3.50;;
3443;SDS011;1736;52.068;6.968;2023-02-03T04:02:03;9.80;;;3.13;;
3443;SDS011;1736;52.068;6.968;2023-02-03T04:04:29;8.63;;;3.17;;
3443;SDS011;1736;52.068;6.968;2023-02-03T04:07:00;11.10;;;3.60;;
3443;SDS011;1736;52.068;6.968;2023-02-03T04:09:27;8.30;;;3.03;;
3443;SDS011;1736;52.068;6.968;2023-02-03T04:11:53;6.07;;;3.40;;
3443;SDS011;1736;52.068;6.968;2023-02-03T04:14:31;13.23;;;4.80;;
3443;SDS011;1736;52.068;6.968;2023-02-03T04:16:59;8.17;;;4.33;;
3443;SDS011;1736;52.068;6.968;2023-02-03T04:19:26;8.17;;;3.40;;
3443;SDS011;1736;52.068;6.968;2023-02-03T04:21:53;7.33;;;4.00;;
3443;SDS011;1736;52.068;6.968;2023-02-03T04:24:20;6.13;;;3.33;;
3443;SDS011;1736;52.068;6.968;2023-02-03T04:26:47;8.13;;;3.73;;
3443;SDS011;1736;52.068;6.968;2023-02-03T04:29:13;11.20;;;3.53;;
3443;SDS011;1736;52.068;6.968;2023-02-03T04:31:40;9.47;;;3.20;;
3443;SDS011;1736;52.068;6.968;2023-02-03T04:34:06;13.63;;;3.60;;
3443;SDS011;1736;52.068;6.968;2023-02-03T04:36:33;7.90;;;3.50;;
3443;SDS011;1736;52.068;6.968;2023-02-03T04:38:59;4.03;;;3.13;;
3443;SDS011;1736;52.068;6.968;2023-02-03T04:41:27;8.07;;;2.90;;
3443;SDS011;1736;52.068;6.968;2023-02-03T04:43:54;9.27;;;3.37;;
3443;SDS011;1736;52.068;6.968;2023-02-03T04:46:20;14.33;;;3.90;;
3443;SDS011;1736;52.068;6.968;2023-02-03T04:48:47;8.43;;;3.40;;
3443;SDS011;1736;52.068;6.968;2023-02-03T04:51:13;7.27;;;3.40;;
3443;SDS011;1736;52.068;6.968;2023-02-03T04:53:40;9.13;;;3.33;;
3443;SDS011;1736;52.068;6.968;2023-02-03T04:56:06;7.37;;;3.20;;
3443;SDS011;1736;52.068;6.968;2023-02-03T04:58:34;7.20;;;3.30;;
3443;SDS011;1736;52.068;6.968;2023-02-03T05:01:04;6.87;;;2.90;;
3443;SDS011;1736;52.068;6.968;2023-02-03T05:03:31;9.37;;;3.67;;
3443;SDS011;1736;52.068;6.968;2023-02-03T05:05:58;5.30;;;3.47;;
3443;SDS011;1736;52.068;6.968;2023-02-03T05:08:24;9.83;;;3.17;;
3443;SDS011;1736;52.068;6.968;2023-02-03T05:10:51;8.43;;;3.83;;
3443;SDS011;1736;52.068;6.968;2023-02-03T05:13:17;3.93;;;2.90;;
3443;SDS011;1736;52.068;6.968;2023-02-03T05:15:45;7.10;;;3.20;;
3443;SDS011;1736;52.068;6.968;2023-02-03T05:18:12;9.00;;;3.53;;
3443;SDS011;1736;52.068;6.968;2023-02-03T05:20:38;8.10;;;3.40;;
3443;SDS011;1736;52.068;6.968;2023-02-03T05:23:04;18.37;;;4.30;;
3443;SDS011;1736;52.068;6.968;2023-02-03T05:25:31;11.93;;;3.70;;
3443;SDS011;1736;52.068;6.968;2023-02-03T05:27:57;11.50;;;4.60;;
3443;SDS011;1736;52.068;6.968;2023-02-03T05:30:24;12.07;;;4.40;;
3443;SDS011;1736;52.068;6.968;2023-02-03T05:32:52;5.33;;;3.43;;
3443;SDS011;1736;52.068;6.968;2023-02-03T05:35:18;9.70;;;3.70;;
3443;SDS011;1736;52.068;6.968;2023-02-03T05:37:45;8.43;;;3.60;;
3443;SDS011;1736;52.068;6.968;2023-02-03T05:40:13;11.50;;;4.00;;
3443;SDS011;1736;52.068;6.968;2023-02-03T05:42:57;9.43;;;3.70;;
3443;SDS011;1736;52.068;6.968;2023-02-03T05:45:23;11.93;;;5.00;;
3443;SDS011;1736;52.068;6.968;2023-02-03T05:47:51;4.67;;;4.23;;
3443;SDS011;1736;52.068;6.968;2023-02-03T05:50:18;7.90;;;3.90;;
3443;SDS011;1736;52.068;6.968;2023-02-03T05:52:46;9.67;;;4.83;;
3443;SDS011;1736;52.068;6.968;2023-02-03T05:55:13;8.90;;;4.30;;
3443;SDS011;1736;52.068;6.968;2023-02-03T05:57:40;4.87;;;3.80;;
3443;SDS011;1736;52.068;6.968;2023-02-03T06:00:07;6.23;;;3.90;;
3443;SDS011;1736;52.068;6.968;2023-02-03T06:02:34;7.80;;;3.87;;
3443;SDS011;1736;52.068;6.968;2023-02-03T06:05:02;8.73;;;5.37;;
3443;SDS011;1736;52.068;6.968;2023-02-03T06:07:29;8.07;;;4.27;;
3443;SDS011;1736;52.068;6.968;2023-02-03T06:09:55;12.27;;;4.83;;
3443;SDS011;1736;52.068;6.968;2023-02-03T06:12:22;8.50;;;4.13;;
3443;SDS011;1736;52.068;6.968;2023-02-03T06:14:48;5.80;;;4.30;;
3443;SDS011;1736;52.068;6.968;2023-02-03T06:17:15;8.20;;;4.07;;
3443;SDS011;1736;52.068;6.968;2023-02-03T06:19:41;5.53;;;3.87;;
3443;SDS011;1736;52.068;6.968;2023-02-03T06:22:09;4.43;;;3.60;;
3443;SDS011;1736;52.068;6.968;2023-02-03T06:24:36;9.10;;;4.07;;
3443;SDS011;1736;52.068;6.968;2023-02-03T06:27:02;9.00;;;4.27;;
3443;SDS011;1736;52.068;6.968;2023-02-03T06:29:29;11.23;;;3.80;;
3443;SDS011;1736;52.068;6.968;2023-02-03T06:31:55;9.40;;;4.50;;
3443;SDS011;1736;52.068;6.968;2023-02-03T06:34:22;4.67;;;3.97;;
3443;SDS011;1736;52.068;6.968;2023-02-03T06:36:48;9.10;;;3.67;;
3443;SDS011;1736;52.068;6.968;2023-02-03T06:39:16;7.90;;;4.17;;
3443;SDS011;1736;52.068;6.968;2023-02-03T06:41:42;9.97;;;4.40;;
3443;SDS011;1736;52.068;6.968;2023-02-03T06:44:09;5.50;;;3.93;;
3443;SDS011;1736;52.068;6.968;2023-02-03T06:46:36;5.87;;;3.73;;
3443;SDS011;1736;52.068;6.968;2023-02-03T06:49:02;8.43;;;4.13;;
3443;SDS011;1736;52.068;6.968;2023-02-03T06:51:29;11.83;;;4.57;;
3443;SDS011;1736;52.068;6.968;2023-02-03T06:53:55;7.07;;;4.33;;
3443;SDS011;1736;52.068;6.968;2023-02-03T06:56:25;8.40;;;4.60;;
3443;SDS011;1736;52.068;6.968;2023-02-03T06:58:51;5.90;;;4.43;;
3443;SDS011;1736;52.068;6.968;2023-02-03T07:01:18;7.17;;;4.60;;
3443;SDS011;1736;52.068;6.968;2023-02-03T07:03:44;10.33;;;4.47;;
3443;SDS011;1736;52.068;6.968;2023-02-03T07:06:11;6.03;;;3.43;;
3443;SDS011;1736;52.068;6.968;2023-02-03T07:08:37;16.63;;;4.80;;
3443;SDS011;1736;52.068;6.968;2023-02-03T07:11:04;13.57;;;5.20;;
3443;SDS011;1736;52.068;6.968;2023-02-03T07:13:32;8.07;;;4.60;;
3443;SDS011;1736;52.068;6.968;2023-02-03T07:15:58;6.93;;;4.43;;
3443;SDS011;1736;52.068;6.968;2023-02-03T07:18:25;15.40;;;5.67;;
3443;SDS011;1736;52.068;6.968;2023-02-03T07:20:52;7.53;;;4.53;;
3443;SDS011;1736;52.068;6.968;2023-02-03T07:23:18;12.40;;;5.30;;
3443;SDS011;1736;52.068;6.968;2023-02-03T07:25:45;15.90;;;5.50;;
3443;SDS011;1736;52.068;6.968;2023-02-03T07:28:11;7.40;;;4.43;;
3443;SDS011;1736;52.068;6.968;2023-02-03T07:30:39;12.40;;;4.67;;
3443;SDS011;1736;52.068;6.968;2023-02-03T07:33:05;8.57;;;3.87;;
3443;SDS011;1736;52.068;6.968;2023-02-03T07:35:32;13.77;;;4.83;;
3443;SDS011;1736;52.068;6.968;2023-02-03T07:37:58;19.47;;;5.03;;
3443;SDS011;1736;52.068;6.968;2023-02-03T07:40:25;9.50;;;4.20;;
3443;SDS011;1736;52.068;6.968;2023-02-03T07:42:51;8.17;;;4.60;;
3443;SDS011;1736;52.068;6.968;2023-02-03T07:45:18;10.17;;;5.10;;
3443;SDS011;1736;52.068;6.968;2023-02-03T07:47:47;9.70;;;5.13;;
3443;SDS011;1736;52.068;6.968;2023-02-03T07:50:14;11.73;;;4.53;;
3443;SDS011;1736;52.068;6.968;2023-02-03T07:52:40;9.90;;;4.53;;
3443;SDS011;1736;52.068;6.968;2023-02-03T07:55:07;12.57;;;4.60;;
3443;SDS011;1736;52.068;6.968;2023-02-03T07:57:34;10.13;;;4.83;;
3443;SDS011;1736;52.068;6.968;2023-02-03T08:00:01;13.30;;;4.60;;
3443;SDS011;1736;52.068;6.968;2023-02-03T08:02:29;15.00;;;5.30;;
3443;SDS011;1736;52.068;6.968;2023-02-03T08:04:57;15.00;;;4.87;;
3443;SDS011;1736;52.068;6.968;2023-02-03T08:07:23;10.20;;;4.90;;
3443;SDS011;1736;52.068;6.968;2023-02-03T08:09:50;9.23;;;4.40;;
3443;SDS011;1736;52.068;6.968;2023-02-03T08:12:16;7.83;;;4.20;;
3443;SDS011;1736;52.068;6.968;2023-02-03T08:14:43;9.40;;;4.50;;
3443;SDS011;1736;52.068;6.968;2023-02-03T08:17:09;7.30;;;4.47;;
3443;SDS011;1736;52.068;6.968;2023-02-03T08:19:36;9.30;;;4.70;;
3443;SDS011;1736;52.068;6.968;2023-02-03T08:22:03;14.57;;;4.30;;
3443;SDS011;1736;52.068;6.968;2023-02-03T08:24:30;7.90;;;4.40;;
3443;SDS011;1736;52.068;6.968;2023-02-03T08:26:56;11.70;;;4.77;;
3443;SDS011;1736;52.068;6.968;2023-02-03T08:29:24;15.93;;;4.57;;
3443;SDS011;1736;52.068;6.968;2023-02-03T08:31:51;9.93;;;4.40;;
3443;SDS011;1736;52.068;6.968;2023-02-03T08:34:18;5.73;;;4.47;;
3443;SDS011;1736;52.068;6.968;2023-02-03T08:36:45;12.93;;;4.93;;
3443;SDS011;1736;52.068;6.968;2023-02-03T08:39:13;14.00;;;4.90;;
3443;SDS011;1736;52.068;6.968;2023-02-03T08:41:39;12.23;;;5.00;;
3443;SDS011;1736;52.068;6.968;2023-02-03T08:44:06;12.57;;;4.67;;
3443;SDS011;1736;52.068;6.968;2023-02-03T08:46:32;6.30;;;4.07;;
3443;SDS011;1736;52.068;6.968;2023-02-03T08:49:00;19.17;;;4.60;;
3443;SDS011;1736;52.068;6.968;2023-02-03T08:51:27;16.87;;;4.53;;
3443;SDS011;1736;52.068;6.968;2023-02-03T08:53:54;11.57;;;4.30;;
3443;SDS011;1736;52.068;6.968;2023-02-03T08:56:22;14.60;;;4.70;;
3443;SDS011;1736;52.068;6.968;2023-02-03T08:58:50;11.93;;;4.77;;
3443;SDS011;1736;52.068;6.968;2023-02-03T09:01:17;11.17;;;3.83;;
3443;SDS011;1736;52.068;6.968;2023-02-03T09:03:43;10.77;;;4.57;;
3443;SDS011;1736;52.068;6.968;2023-02-03T09:06:10;11.70;;;4.37;;
3443;SDS011;1736;52.068;6.968;2023-02-03T09:08:40;6.20;;;3.97;;
3443;SDS011;1736;52.068;6.968;2023-02-03T09:11:07;9.77;;;4.03;;
3443;SDS011;1736;52.068;6.968;2023-02-03T09:13:35;7.60;;;4.23;;
3443;SDS011;1736;52.068;6.968;2023-02-03T09:16:03;9.83;;;3.60;;
3443;SDS011;1736;52.068;6.968;2023-02-03T09:18:30;7.27;;;3.77;;
3443;SDS011;1736;52.068;6.968;2023-02-03T09:20:59;9.67;;;3.53;;
3443;SDS011;1736;52.068;6.968;2023-02-03T09:23:27;7.23;;;3.90;;
3443;SDS011;1736;52.068;6.968;2023-02-03T09:25:53;5.90;;;3.60;;
3443;SDS011;1736;52.068;6.968;2023-02-03T09:28:20;8.57;;;4.53;;
3443;SDS011;1736;52.068;6.968;2023-02-03T09:30:48;9.30;;;3.83;;
3443;SDS011;1736;52.068;6.968;2023-02-03T09:33:14;9.30;;;4.20;;
3443;SDS011;1736;52.068;6.968;2023-02-03T09:35:41;7.23;;;3.40;;
3443;SDS011;1736;52.068;6.968;2023-02-03T09:38:07;9.67;;;4.47;;
3443;SDS011;1736;52.068;6.968;2023-02-03T09:40:33;10.10;;;3.53;;
3443;SDS011;1736;52.068;6.968;2023-02-03T09:43:11;10.13;;;3.27;;
3443;SDS011;1736;52.068;6.968;2023-02-03T09:45:50;6.10;;;3.07;;
3443;SDS011;1736;52.068;6.968;2023-02-03T09:48:17;6.97;;;3.13;;
3443;SDS011;1736;52.068;6.968;2023-02-03T09:50:47;13.60;;;3.20;;
3443;SDS011;1736;52.068;6.968;2023-02-03T09:53:18;4.83;;;2.87;;
3443;SDS011;1736;52.068;6.968;2023-02-03T09:55:53;6.97;;;3.70;;
3443;SDS011;1736;52.068;6.968;2023-02-03T09:58:20;11.60;;;3.60;;
3443;SDS011;1736;52.068;6.968;2023-02-03T10:00:48;14.57;;;3.57;;
3443;SDS011;1736;52.068;6.968;2023-02-03T10:03:22;7.80;;;3.10;;
3443;SDS011;1736;52.068;6.968;2023-02-03T10:06:03;9.50;;;3.60;;
3443;SDS011;1736;52.068;6.968;2023-02-03T10:08:50;5.53;;;3.20;;
3443;SDS011;1736;52.068;6.968;2023-02-03T10:11:34;6.93;;;3.50;;
3443;SDS011;1736;52.068;6.968;2023-02-03T10:14:12;7.40;;;3.30;;
3443;SDS011;1736;52.068;6.968;2023-02-03T10:16:55;10.30;;;3.60;;
3443;SDS011;1736;52.068;6.968;2023-02-03T10:19:34;5.93;;;3.20;;
3443;SDS011;1736;52.068;6.968;2023-02-03T10:22:03;12.20;;;3.27;;
3443;SDS011;1736;52.068;6.968;2023-02-03T10:24:36;9.43;;;3.30;;
3443;SDS011;1736;52.068;6.968;2023-02-03T10:27:07;10.03;;;3.70;;
3443;SDS011;1736;52.068;6.968;2023-02-03T10:29:41;9.50;;;3.60;;
3443;SDS011;1736;52.068;6.968;2023-02-03T10:32:10;9.50;;;3.53;;
3443;SDS011;1736;52.068;6.968;2023-02-03T10:34:37;7.50;;;3.10;;
3443;SDS011;1736;52.068;6.968;2023-02-03T10:37:09;7.70;;;3.20;;
3443;SDS011;1736;52.068;6.968;2023-02-03T10:39:46;8.90;;;3.60;;
3443;SDS011;1736;52.068;6.968;2023-02-03T10:42:15;4.17;;;2.70;;
3443;SDS011;1736;52.068;6.968;2023-02-03T10:44:44;9.00;;;3.73;;
3443;SDS011;1736;52.068;6.968;2023-02-03T10:47:20;11.90;;;3.20;;
3443;SDS011;1736;52.068;6.968;2023-02-03T10:49:51;7.33;;;3.13;;
3443;SDS011;1736;52.068;6.968;2023-02-03T10:52:29;8.43;;;3.80;;
3443;SDS011;1736;52.068;6.968;2023-02-03T10:54:58;4.70;;;3.03;;
3443;SDS011;1736;52.068;6.968;2023-02-03T10:57:29;5.77;;;3.70;;
3443;SDS011;1736;52.068;6.968;2023-02-03T11:00:04;10.50;;;3.77;;
3443;SDS011;1736;52.068;6.968;2023-02-03T11:02:35;7.10;;;3.37;;
3443;SDS011;1736;52.068;6.968;2023-02-03T11:05:08;12.67;;;4.40;;
3443;SDS011;1736;52.068;6.968;2023-02-03T11:07:36;21.80;;;5.83;;
3443;SDS011;1736;52.068;6.968;2023-02-03T11:10:03;10.43;;;4.13;;
3443;SDS011;1736;52.068;6.968;2023-02-03T11:13:07;13.47;;;4.40;;
3443;SDS011;1736;52.068;6.968;2023-02-03T11:15:37;13.23;;;4.93;;
3443;SDS011;1736;52.068;6.968;2023-02-03T11:20:55;11.10;;;4.63;;
3443;SDS011;1736;52.068;6.968;2023-02-03T11:23:22;7.47;;;4.97;;
3443;SDS011;1736;52.068;6.968;2023-02-03T11:25:49;12.03;;;4.23;;
3443;SDS011;1736;52.068;6.968;2023-02-03T11:28:16;16.00;;;3.90;;
3443;SDS011;1736;52.068;6.968;2023-02-03T11:30:43;7.20;;;3.97;;
3443;SDS011;1736;52.068;6.968;2023-02-03T11:33:14;7.97;;;4.47;;
3443;SDS011;1736;52.068;6.968;2023-02-03T11:35:53;8.40;;;4.43;;
3443;SDS011;1736;52.068;6.968;2023-02-03T11:38:29;8.93;;;5.00;;
3443;SDS011;1736;52.068;6.968;2023-02-03T11:40:57;11.50;;;4.93;;
3443;SDS011;1736;52.068;6.968;2023-02-03T11:43:25;13.47;;;6.60;;
3443;SDS011;1736;52.068;6.968;2023-02-03T11:45:53;6.63;;;4.70;;
3443;SDS011;1736;52.068;6.968;2023-02-03T11:48:25;7.43;;;5.10;;
3443;SDS011;1736;52.068;6.968;2023-02-03T11:50:59;10.30;;;5.23;;
3443;SDS011;1736;52.068;6.968;2023-02-03T11:53:30;17.67;;;5.77;;
3443;SDS011;1736;52.068;6.968;2023-02-03T11:56:07;12.20;;;5.40;;
3443;SDS011;1736;52.068;6.968;2023-02-03T11:58:52;11.77;;;4.47;;
3443;SDS011;1736;52.068;6.968;2023-02-03T12:07:33;7.97;;;3.13;;
3443;SDS011;1736;52.068;6.968;2023-02-03T12:10:12;11.70;;;4.63;;
3443;SDS011;1736;52.068;6.968;2023-02-03T12:12:50;11.27;;;3.30;;
3443;SDS011;1736;52.068;6.968;2023-02-03T12:15:26;6.50;;;3.40;;
3443;SDS011;1736;52.068;6.968;2023-02-03T12:18:07;8.43;;;3.80;;
3443;SDS011;1736;52.068;6.968;2023-02-03T12:20:48;21.60;;;7.07;;
3443;SDS011;1736;52.068;6.968;2023-02-03T12:23:32;6.17;;;4.13;;
3443;SDS011;1736;52.068;6.968;2023-02-03T12:26:12;6.93;;;4.37;;
3443;SDS011;1736;52.068;6.968;2023-02-03T12:28:45;14.40;;;3.40;;
3443;SDS011;1736;52.068;6.968;2023-02-03T12:31:19;13.80;;;6.33;;
3443;SDS011;1736;52.068;6.968;2023-02-03T12:33:55;12.70;;;6.20;;
3443;SDS011;1736;52.068;6.968;2023-02-03T12:36:31;14.47;;;5.70;;
3443;SDS011;1736;52.068;6.968;2023-02-03T12:39:06;9.13;;;4.20;;
3443;SDS011;1736;52.068;6.968;2023-02-03T12:41:42;10.83;;;4.00;;
3443;SDS011;1736;52.068;6.968;2023-02-03T12:44:15;8.47;;;3.67;;
3443;SDS011;1736;52.068;6.968;2023-02-03T12:46:47;18.53;;;4.03;;
3443;SDS011;1736;52.068;6.968;2023-02-03T12:49:23;10.17;;;3.53;;
3443;SDS011;1736;52.068;6.968;2023-02-03T12:51:56;11.43;;;3.80;;
3443;SDS011;1736;52.068;6.968;2023-02-03T12:54:30;16.90;;;5.00;;
3443;SDS011;1736;52.068;6.968;2023-02-03T12:57:05;16.63;;;5.00;;
3443;SDS011;1736;52.068;6.968;2023-02-03T12:59:39;19.47;;;3.97;;
3443;SDS011;1736;52.068;6.968;2023-02-03T13:02:11;15.83;;;4.80;;
3443;SDS011;1736;52.068;6.968;2023-02-03T13:04:44;17.57;;;5.50;;
3443;SDS011;1736;52.068;6.968;2023-02-03T13:07:15;15.73;;;5.93;;
3443;SDS011;1736;52.068;6.968;2023-02-03T13:09:52;21.23;;;5.80;;
3443;SDS011;1736;52.068;6.968;2023-02-03T13:12:26;13.07;;;3.43;;
3443;SDS011;1736;52.068;6.968;2023-02-03T13:14:56;16.33;;;4.40;;
3443;SDS011;1736;52.068;6.968;2023-02-03T13:17:41;18.37;;;4.33;;
3443;SDS011;1736;52.068;6.968;2023-02-03T13:20:12;18.07;;;4.50;;
3443;SDS011;1736;52.068;6.968;2023-02-03T13:22:42;19.30;;;5.80;;
3443;SDS011;1736;52.068;6.968;2023-02-03T13:25:14;14.67;;;4.30;;
3443;SDS011;1736;52.068;6.968;2023-02-03T13:27:47;21.70;;;4.53;;
3443;SDS011;1736;52.068;6.968;2023-02-03T13:30:29;25.67;;;4.67;;
3443;SDS011;1736;52.068;6.968;2023-02-03T13:36:13;17.80;;;5.60;;
3443;SDS011;1736;52.068;6.968;2023-02-03T13:39:12;19.87;;;4.80;;
3443;SDS011;1736;52.068;6.968;2023-02-03T13:42:07;16.37;;;4.37;;
3443;SDS011;1736;52.068;6.968;2023-02-03T13:44:42;18.47;;;4.70;;
3443;SDS011;1736;52.068;6.968;2023-02-03T13:47:14;17.37;;;6.80;;
3443;SDS011;1736;52.068;6.968;2023-02-03T13:49:44;27.73;;;5.37;;
3443;SDS011;1736;52.068;6.968;2023-02-03T13:52:24;16.70;;;7.47;;
3443;SDS011;1736;52.068;6.968;2023-02-03T13:54:54;25.30;;;6.90;;
3443;SDS011;1736;52.068;6.968;2023-02-03T13:57:25;21.90;;;6.43;;
3443;SDS011;1736;52.068;6.968;2023-02-03T13:59:58;19.93;;;5.97;;
3443;SDS011;1736;52.068;6.968;2023-02-03T14:02:29;11.97;;;4.50;;
3443;SDS011;1736;52.068;6.968;2023-02-03T14:05:08;22.03;;;4.77;;
3443;SDS011;1736;52.068;6.968;2023-02-03T14:17:06;17.30;;;5.80;;
3443;SDS011;1736;52.068;6.968;2023-02-03T14:19:55;16.33;;;4.60;;
3443;SDS011;1736;52.068;6.968;2023-02-03T14:22:21;16.83;;;4.07;;
3443;SDS011;1736;52.068;6.968;2023-02-03T14:24:48;19.27;;;4.57;;
3443;SDS011;1736;52.068;6.968;2023-02-03T14:27:16;16.33;;;5.20;;
3443;SDS011;1736;52.068;6.968;2023-02-03T14:29:45;23.37;;;5.60;;
3443;SDS011;1736;52.068;6.968;2023-02-03T14:32:33;17.00;;;4.30;;
3443;SDS011;1736;52.068;6.968;2023-02-03T14:35:15;11.40;;;3.97;;
3443;SDS011;1736;52.068;6.968;2023-02-03T14:37:49;15.00;;;3.50;;
3443;SDS011;1736;52.068;6.968;2023-02-03T14:40:27;21.93;;;4.37;;
3443;SDS011;1736;52.068;6.968;2023-02-03T14:46:07;19.23;;;4.80;;
3443;SDS011;1736;52.068;6.968;2023-02-03T14:48:51;14.33;;;4.17;;
3443;SDS011;1736;52.068;6.968;2023-02-03T14:51:34;16.40;;;5.67;;
3443;SDS011;1736;52.068;6.968;2023-02-03T14:57:13;23.83;;;4.23;;
3443;SDS011;1736;52.068;6.968;2023-02-03T14:59:53;16.50;;;4.67;;
3443;SDS011;1736;52.068;6.968;2023-02-03T15:02:24;32.57;;;6.27;;
3443;SDS011;1736;52.068;6.968;2023-02-03T15:04:52;14.03;;;4.13;;
3443;SDS011;1736;52.068;6.968;2023-02-03T15:07:58;15.80;;;4.40;;
3443;SDS011;1736;52.068;6.968;2023-02-03T15:10:28;14.43;;;4.00;;
3443;SDS011;1736;52.068;6.968;2023-02-03T15:15:51;18.37;;;5.23;;
3443;SDS011;1736;52.068;6.968;2023-02-03T15:18:19;29.90;;;5.50;;
3443;SDS011;1736;52.068;6.968;2023-02-03T15:20:51;20.50;;;5.83;;
3443;SDS011;1736;52.068;6.968;2023-02-03T15:23:21;18.33;;;4.63;;
3443;SDS011;1736;52.068;6.968;2023-02-03T15:25:52;24.40;;;4.50;;
3443;SDS011;1736;52.068;6.968;2023-02-03T15:28:20;20.03;;;4.83;;
3443;SDS011;1736;52.068;6.968;2023-02-03T15:30:48;18.03;;;4.43;;
3443;SDS011;1736;52.068;6.968;2023-02-03T15:33:22;15.10;;;4.20;;
3443;SDS011;1736;52.068;6.968;2023-02-03T15:35:51;14.03;;;4.00;;
3443;SDS011;1736;52.068;6.968;2023-02-03T15:38:23;16.77;;;4.50;;
3443;SDS011;1736;52.068;6.968;2023-02-03T15:40:53;15.87;;;3.53;;
3443;SDS011;1736;52.068;6.968;2023-02-03T15:43:23;14.80;;;5.33;;
3443;SDS011;1736;52.068;6.968;2023-02-03T15:45:58;11.10;;;4.57;;
3443;SDS011;1736;52.068;6.968;2023-02-03T15:48:32;16.10;;;4.23;;
3443;SDS011;1736;52.068;6.968;2023-02-03T15:51:04;13.50;;;4.40;;
3443;SDS011;1736;52.068;6.968;2023-02-03T15:53:41;25.50;;;4.90;;
3443;SDS011;1736;52.068;6.968;2023-02-03T15:56:16;10.93;;;3.80;;
3443;SDS011;1736;52.068;6.968;2023-02-03T15:58:47;26.40;;;4.03;;
3443;SDS011;1736;52.068;6.968;2023-02-03T16:01:14;11.70;;;3.40;;
3443;SDS011;1736;52.068;6.968;2023-02-03T16:03:47;18.03;;;4.07;;